Time;durP1;ratioP1;P1;durP2;ratioP2;P2;SDS_P1;SDS_P2;PMS_P1;PMS_P2;Temp;Humidity;BMP_temperature;BMP_pressure;BME280_temperature;BME280_humidity;BME280_pressure;Samples;Min_cycle;Max_cycle;Signal;HPM_P1;HPM_P2
2020/12/17 00:01:08;;;;;;;180.68;70.05;;;153.90;2227.20;;;;;;5070876;28;20104;-58
2020/12/17 00:03:33;;;;;;;186.88;71.22;;;154.00;2227.20;;;;;;5072861;28;20170;-59
2020/12/17 00:05:59;;;;;;;178.43;71.30;;;154.00;2227.20;;;;;;5074902;28;20063;-57
2020/12/17 00:08:25;;;;;;;182.93;74.50;;;153.90;2227.20;;;;;;5074836;28;20107;-58
2020/12/17 00:10:51;;;;;;;182.07;74.03;;;154.10;2201.60;;;;;;5074916;28;20012;-59
2020/12/17 00:13:18;;;;;;;165.65;71.75;;;154.20;2201.60;;;;;;5074885;28;20475;-58
2020/12/17 00:15:44;;;;;;;182.60;77.40;;;154.20;2176.00;;;;;;5074894;28;20032;-57
2020/12/17 00:18:09;;;;;;;177.43;76.50;;;154.30;2176.00;;;;;;5075288;28;20029;-57
2020/12/17 00:20:35;;;;;;;182.15;83.03;;;154.40;2150.40;;;;;;5075153;28;20034;-57
2020/12/17 00:23:01;;;;;;;187.02;89.10;;;154.10;2201.60;;;;;;5074748;28;20024;-58
2020/12/17 00:25:26;;;;;;;187.32;87.25;;;154.30;2176.00;;;;;;5075321;28;20032;-57
2020/12/17 00:27:52;;;;;;;189.23;86.75;;;154.40;2150.40;;;;;;5074932;28;20426;-57
2020/12/17 00:30:18;;;;;;;188.70;89.80;;;179.20;2150.40;;;;;;5075123;28;20032;-56
2020/12/17 00:32:48;;;;;;;189.43;89.57;;;179.30;2124.80;;;;;;5075310;28;20032;-56
2020/12/17 00:35:16;;;;;;;177.98;85.07;;;179.40;2099.20;;;;;;5075220;28;20036;-57
2020/12/17 00:37:42;;;;;;;171.25;83.07;;;179.50;2099.20;;;;;;5075200;28;20419;-57
2020/12/17 00:40:13;;;;;;;164.02;78.05;;;179.50;2099.20;;;;;;5075058;28;20032;-57
2020/12/17 00:42:40;;;;;;;147.63;71.90;;;179.60;2073.60;;;;;;5074344;28;20048;-57
2020/12/17 00:45:05;;;;;;;152.60;72.50;;;179.60;2073.60;;;;;;5074399;28;20063;-57
2020/12/17 00:47:31;;;;;;;149.80;77.30;;;179.60;2099.20;;;;;;5074705;28;20017;-59
2020/12/17 00:49:57;;;;;;;167.35;77.75;;;179.50;2099.20;;;;;;5074902;28;20024;-58
2020/12/17 00:52:24;;;;;;;166.77;77.65;;;179.50;2099.20;;;;;;5074769;28;20070;-59
2020/12/17 00:54:50;;;;;;;164.48;77.47;;;179.20;2124.80;;;;;;5074599;28;20032;-59
2020/12/17 00:57:16;;;;;;;165.30;76.75;;;179.20;2124.80;;;;;;5074497;28;20029;-59
2020/12/17 00:59:42;;;;;;;164.48;76.25;;;179.20;2124.80;;;;;;5074817;28;20077;-59
2020/12/17 01:02:07;;;;;;;176.48;75.95;;;179.30;2124.80;;;;;;5074538;28;20100;-59
2020/12/17 01:04:33;;;;;;;166.38;77.10;;;179.30;2124.80;;;;;;5074642;28;20033;-59
2020/12/17 01:06:59;;;;;;;171.00;76.72;;;179.30;2124.80;;;;;;5074377;28;20049;-59
2020/12/17 01:09:24;;;;;;;161.85;73.28;;;179.40;2124.80;;;;;;5074101;28;20027;-59
2020/12/17 01:11:50;;;;;;;157.05;68.28;;;179.30;2150.40;;;;;;5074467;28;20082;-58
2020/12/17 01:14:16;;;;;;;172.63;66.78;;;179.30;2150.40;;;;;;5073879;28;20040;-59
2020/12/17 01:16:48;;;;;;;143.70;63.83;;;179.30;2150.40;;;;;;5073945;28;20029;-58
2020/12/17 01:19:14;;;;;;;152.20;65.57;;;179.30;2150.40;;;;;;5074303;28;20035;-59
2020/12/17 01:21:40;;;;;;;149.13;66.28;;;179.20;2176.00;;;;;;5074045;28;20371;-57
2020/12/17 01:24:06;;;;;;;150.20;65.43;;;154.40;2201.60;;;;;;5073979;28;20070;-58
2020/12/17 01:26:31;;;;;;;158.85;69.22;;;154.30;2201.60;;;;;;5074188;28;20360;-58
2020/12/17 01:28:57;;;;;;;143.57;68.03;;;154.40;2201.60;;;;;;5073930;28;20032;-59
2020/12/17 01:31:23;;;;;;;150.90;68.50;;;154.50;2176.00;;;;;;5073067;28;20048;-58
2020/12/17 01:33:49;;;;;;;141.52;63.38;;;154.10;2227.20;;;;;;5074268;28;20553;-59
2020/12/17 01:36:14;;;;;;;143.93;63.25;;;154.20;2227.20;;;;;;5073773;28;20059;-58
2020/12/17 01:38:41;;;;;;;151.52;63.97;;;154.40;2201.60;;;;;;5074060;28;20497;-59
2020/12/17 01:41:11;;;;;;;149.93;63.65;;;154.40;2201.60;;;;;;5073488;28;20020;-58
2020/12/17 01:43:46;;;;;;;134.93;61.25;;;154.40;2201.60;;;;;;5074016;28;20024;-59
2020/12/17 01:46:14;;;;;;;138.65;61.92;;;154.40;2201.60;;;;;;5073458;28;20024;-58
2020/12/17 01:48:41;;;;;;;129.07;56.67;;;154.40;2201.60;;;;;;5073635;28;20024;-58
2020/12/17 01:51:08;;;;;;;147.25;63.08;;;154.20;2227.20;;;;;;5073663;28;20052;-58
2020/12/17 01:53:38;;;;;;;145.32;60.65;;;154.20;2227.20;;;;;;5072673;28;20161;-59
2020/12/17 01:56:12;;;;;;;135.52;57.80;;;154.10;2252.80;;;;;;5073409;28;20021;-58
2020/12/17 01:58:47;;;;;;;131.68;60.70;;;154.30;2201.60;;;;;;5073083;28;20048;-58
2020/12/17 02:01:16;;;;;;;145.48;60.38;;;154.40;2201.60;;;;;;5073279;28;20082;-58
2020/12/17 02:03:42;;;;;;;132.00;58.70;;;154.40;2201.60;;;;;;5073632;28;20112;-59
2020/12/17 02:06:08;;;;;;;144.32;59.00;;;154.40;2176.00;;;;;;5059923;28;20462;-58
2020/12/17 02:08:39;;;;;;;139.00;59.08;;;154.40;2176.00;;;;;;5073406;28;20067;-59
2020/12/17 02:11:09;;;;;;;138.60;59.17;;;154.40;2176.00;;;;;;5072959;28;20029;-59
2020/12/17 02:13:35;;;;;;;135.07;58.55;;;154.30;2201.60;;;;;;5073408;28;20067;-59
2020/12/17 02:16:03;;;;;;;136.48;56.92;;;154.40;2176.00;;;;;;5054725;28;20023;-59
2020/12/17 02:18:28;;;;;;;139.68;55.40;;;154.40;2176.00;;;;;;5073135;28;20099;-59
2020/12/17 02:20:54;;;;;;;126.05;52.75;;;154.40;2176.00;;;;;;5072946;28;20415;-59
2020/12/17 02:23:22;;;;;;;121.82;52.10;;;154.40;2176.00;;;;;;5073081;28;20025;-60
2020/12/17 02:25:49;;;;;;;113.18;51.92;;;154.40;2176.00;;;;;;5054209;28;20378;-59
2020/12/17 02:28:19;;;;;;;118.03;52.78;;;154.30;2201.60;;;;;;5058518;28;20467;-59
2020/12/17 02:30:44;;;;;;;121.85;51.08;;;154.30;2201.60;;;;;;5072982;28;20028;-58
2020/12/17 02:33:11;;;;;;;124.25;52.53;;;154.20;2201.60;;;;;;5072846;28;20040;-59
2020/12/17 02:35:37;;;;;;;113.45;51.40;;;154.20;2176.00;;;;;;5072802;28;20108;-59
2020/12/17 02:38:04;;;;;;;117.10;51.38;;;154.10;2201.60;;;;;;5072237;28;20024;-59
2020/12/17 02:40:30;;;;;;;142.23;56.88;;;154.10;2201.60;;;;;;5072809;28;20095;-58
2020/12/17 02:42:56;;;;;;;141.50;57.55;;;154.00;2201.60;;;;;;5072342;28;20359;-59
2020/12/17 02:45:22;;;;;;;167.90;58.22;;;154.00;2227.20;;;;;;5071238;28;20012;-59
2020/12/17 02:47:47;;;;;;;166.38;60.20;;;154.00;2227.20;;;;;;5068158;28;20017;-59
2020/12/17 02:50:14;;;;;;;226.82;69.32;;;154.00;2227.20;;;;;;5072626;28;20033;-59
2020/12/17 02:52:41;;;;;;;217.18;62.33;;;154.00;2252.80;;;;;;5072402;28;20020;-59
2020/12/17 02:55:07;;;;;;;182.95;61.13;;;128.70;2252.80;;;;;;5072183;28;20036;-59
2020/12/17 02:57:34;;;;;;;181.82;62.28;;;128.80;2252.80;;;;;;5072600;28;20032;-59
2020/12/17 03:00:00;;;;;;;184.85;62.38;;;128.90;2252.80;;;;;;5072794;28;20021;-59
2020/12/17 03:02:26;;;;;;;185.60;62.33;;;153.60;2252.80;;;;;;5072132;28;20032;-59
2020/12/17 03:04:52;;;;;;;170.05;61.38;;;153.70;2252.80;;;;;;5072320;28;20035;-59
2020/12/17 03:07:17;;;;;;;271.05;68.05;;;128.80;2252.80;;;;;;5072143;28;20017;-59
2020/12/17 03:09:44;;;;;;;175.52;63.35;;;128.50;2252.80;;;;;;5072341;28;20532;-59
2020/12/17 03:12:10;;;;;;;194.25;62.97;;;128.60;2252.80;;;;;;5072047;28;20063;-59
2020/12/17 03:14:35;;;;;;;167.98;60.05;;;128.70;2252.80;;;;;;5072271;28;20072;-59
2020/12/17 03:17:01;;;;;;;175.48;58.92;;;128.30;2252.80;;;;;;5072222;28;20119;-59
2020/12/17 03:19:27;;;;;;;166.95;61.35;;;128.60;2252.80;;;;;;5072294;28;20025;-59
2020/12/17 03:21:52;;;;;;;183.98;62.10;;;128.80;2252.80;;;;;;5072025;28;20104;-58
2020/12/17 03:24:18;;;;;;;175.88;62.38;;;128.60;2252.80;;;;;;5072301;28;20060;-58
2020/12/17 03:26:43;;;;;;;170.15;60.67;;;128.00;2252.80;;;;;;5072081;28;20016;-59
2020/12/17 03:29:09;;;;;;;210.00;61.63;;;128.10;2252.80;;;;;;5072553;28;20028;-59
2020/12/17 03:31:35;;;;;;;157.32;55.67;;;128.50;2252.80;;;;;;5071711;28;20462;-59
2020/12/17 03:34:01;;;;;;;185.98;57.65;;;128.80;2252.80;;;;;;5069725;28;20052;-59
2020/12/17 03:36:26;;;;;;;268.92;66.72;;;128.90;2252.80;;;;;;5072186;28;20075;-59
2020/12/17 03:38:52;;;;;;;169.18;59.05;;;128.90;2252.80;;;;;;5074366;28;20455;-59
2020/12/17 03:41:18;;;;;;;246.05;66.32;;;128.60;2252.80;;;;;;5076195;28;20036;-59
2020/12/17 03:43:43;;;;;;;163.60;58.28;;;128.40;2252.80;;;;;;5076275;28;20028;-59
2020/12/17 03:46:09;;;;;;;261.10;66.53;;;128.30;2252.80;;;;;;5075906;28;20035;-60
2020/12/17 03:48:35;;;;;;;172.90;60.75;;;128.40;2252.80;;;;;;5075849;28;20369;-61
2020/12/17 03:51:01;;;;;;;132.68;54.95;;;128.70;2252.80;;;;;;5076065;28;20490;-59
2020/12/17 03:53:27;;;;;;;166.93;51.47;;;128.90;2252.80;;;;;;5075886;28;20039;-59
2020/12/17 03:55:52;;;;;;;149.43;50.38;;;153.60;2252.80;;;;;;5075827;28;20462;-59
2020/12/17 03:58:18;;;;;;;145.15;51.22;;;153.60;2252.80;;;;;;5075782;28;20471;-59
2020/12/17 04:00:44;;;;;;;137.98;54.25;;;128.90;2252.80;;;;;;5075752;28;20017;-59
2020/12/17 04:03:09;;;;;;;140.98;48.92;;;128.80;2252.80;;;;;;5075513;28;20741;-59
2020/12/17 04:05:35;;;;;;;140.52;48.58;;;153.60;2252.80;;;;;;5075457;28;20049;-59
2020/12/17 04:08:01;;;;;;;175.88;53.58;;;153.60;2252.80;;;;;;5075478;28;20049;-59
2020/12/17 04:10:27;;;;;;;152.10;52.65;;;128.60;2252.80;;;;;;5075615;28;20429;-59
2020/12/17 04:12:52;;;;;;;202.25;52.22;;;128.30;2252.80;;;;;;5075346;28;20017;-59
2020/12/17 04:15:19;;;;;;;169.55;54.95;;;128.50;2252.80;;;;;;5075683;28;20086;-59
2020/12/17 04:17:44;;;;;;;141.98;49.97;;;128.60;2252.80;;;;;;5075088;28;20024;-59
2020/12/17 04:20:10;;;;;;;216.68;52.03;;;128.70;2252.80;;;;;;5075400;28;20024;-59
2020/12/17 04:22:36;;;;;;;123.45;48.40;;;128.50;2252.80;;;;;;5075153;28;20028;-59
2020/12/17 04:25:02;;;;;;;151.35;52.20;;;128.60;2252.80;;;;;;5075771;28;20056;-59
2020/12/17 04:27:27;;;;;;;230.88;55.03;;;128.80;2252.80;;;;;;5074966;28;20024;-59
2020/12/17 04:29:53;;;;;;;164.15;52.17;;;128.60;2252.80;;;;;;5075143;28;20378;-59
2020/12/17 04:32:18;;;;;;;196.23;50.20;;;128.80;2252.80;;;;;;5075591;28;20074;-59
2020/12/17 04:34:44;;;;;;;196.07;52.80;;;128.90;2252.80;;;;;;5074969;28;20047;-60
2020/12/17 04:37:10;;;;;;;177.15;54.85;;;153.60;2252.80;;;;;;5075362;28;20048;-59
2020/12/17 04:39:35;;;;;;;149.63;52.42;;;128.90;2252.80;;;;;;5073927;28;20033;-59
2020/12/17 04:42:02;;;;;;;137.15;51.38;;;128.70;2252.80;;;;;;5074557;28;20100;-59
2020/12/17 04:44:28;;;;;;;133.38;47.92;;;128.70;2252.80;;;;;;5075164;28;20495;-58
2020/12/17 04:47:05;;;;;;;125.57;49.75;;;128.90;2252.80;;;;;;5074907;28;20020;-59
2020/12/17 04:49:37;;;;;;;184.85;54.13;;;153.70;2252.80;;;;;;5073890;28;20070;-59
2020/12/17 04:52:03;;;;;;;148.35;51.40;;;153.60;2252.80;;;;;;5074828;28;20059;-59
2020/12/17 04:54:29;;;;;;;148.45;50.40;;;128.80;2252.80;;;;;;5075101;28;20064;-59
2020/12/17 04:57:07;;;;;;;141.88;48.03;;;128.90;2252.80;;;;;;5074836;28;20025;-59
2020/12/17 04:59:50;;;;;;;141.05;52.40;;;153.70;2252.80;;;;;;5074971;28;20020;-58
2020/12/17 05:02:17;;;;;;;129.65;48.90;;;153.70;2252.80;;;;;;5055922;28;20360;-59
2020/12/17 05:04:45;;;;;;;115.82;46.10;;;153.70;2252.80;;;;;;5074757;28;20453;-59
2020/12/17 05:07:16;;;;;;;124.55;48.85;;;153.80;2252.80;;;;;;5074266;28;20445;-59
2020/12/17 05:09:43;;;;;;;152.38;48.65;;;153.70;2252.80;;;;;;5074623;28;20024;-59
2020/12/17 05:12:09;;;;;;;117.20;46.78;;;153.60;2252.80;;;;;;5073915;28;20021;-59
2020/12/17 05:14:36;;;;;;;134.13;47.40;;;128.70;2252.80;;;;;;5074568;28;20029;-60
2020/12/17 05:17:02;;;;;;;118.63;46.75;;;128.70;2252.80;;;;;;5074116;28;20069;-59
2020/12/17 05:19:28;;;;;;;123.28;48.15;;;128.80;2252.80;;;;;;5074770;28;20052;-59
2020/12/17 05:21:56;;;;;;;123.68;47.53;;;128.50;2252.80;;;;;;5074247;28;20125;-59
2020/12/17 05:24:22;;;;;;;113.88;47.97;;;128.60;2252.80;;;;;;5074511;28;20146;-59
2020/12/17 05:26:53;;;;;;;118.93;49.08;;;128.70;2252.80;;;;;;5074094;28;20017;-59
2020/12/17 05:29:19;;;;;;;110.18;43.72;;;128.80;2252.80;;;;;;5074164;28;20074;-59
2020/12/17 05:31:48;;;;;;;131.90;49.08;;;128.90;2252.80;;;;;;5073688;28;20062;-60
2020/12/17 05:34:14;;;;;;;;;;;128.80;2252.80;;;;;;5074085;28;20032;-59
2020/12/17 05:36:44;;;;;;;204.90;53.72;;;128.30;2252.80;;;;;;5074005;28;20251;-59
2020/12/17 05:39:15;;;;;;;130.95;46.67;;;128.30;2252.80;;;;;;5073898;28;20024;-59
2020/12/17 05:41:42;;;;;;;112.65;44.80;;;128.30;2252.80;;;;;;5073722;28;20024;-59
2020/12/17 05:44:10;;;;;;;131.35;47.13;;;128.40;2252.80;;;;;;5073679;28;20048;-59
2020/12/17 05:46:38;;;;;;;117.43;45.95;;;128.30;2252.80;;;;;;5072181;28;20020;-59
2020/12/17 05:49:20;;;;;;;122.30;45.10;;;128.60;2252.80;;;;;;5073922;28;20044;-59
2020/12/17 05:51:48;;;;;;;116.93;44.88;;;128.80;2252.80;;;;;;5055485;28;20032;-59
2020/12/17 05:54:26;;;;;;;117.93;47.30;;;128.80;2252.80;;;;;;5073616;28;20040;-59
2020/12/17 05:57:13;;;;;;;117.22;44.05;;;128.80;2252.80;;;;;;5073123;28;20020;-58
2020/12/17 05:59:40;;;;;;;119.28;41.50;;;128.90;2252.80;;;;;;5073730;28;20020;-59
2020/12/17 06:02:30;;;;;;;135.70;42.67;;;153.70;2252.80;;;;;;5073121;28;20111;-58
2020/12/17 06:05:12;;;;;;;116.78;42.00;;;153.90;2252.80;;;;;;5059193;28;20017;-58
2020/12/17 06:07:49;;;;;;;120.50;43.17;;;153.90;2252.80;;;;;;5073013;28;20079;-59
2020/12/17 06:10:17;;;;;;;119.03;41.55;;;154.00;2227.20;;;;;;5073413;28;20020;-59
2020/12/17 06:12:45;;;;;;;113.10;44.58;;;153.90;2252.80;;;;;;5072871;28;20501;-59
2020/12/17 06:15:17;;;;;;;120.85;45.60;;;153.90;2252.80;;;;;;5072987;28;20115;-59
2020/12/17 06:17:48;;;;;;;115.25;43.85;;;153.90;2252.80;;;;;;5073231;28;20112;-59
2020/12/17 06:20:15;;;;;;;117.63;43.45;;;153.90;2252.80;;;;;;5055278;28;20386;-59
2020/12/17 06:22:42;;;;;;;157.00;47.80;;;153.80;2252.80;;;;;;5072712;28;20021;-59
2020/12/17 06:25:12;;;;;;;123.28;45.25;;;153.60;2252.80;;;;;;5072869;28;20058;-59
2020/12/17 06:27:43;;;;;;;208.98;48.22;;;128.80;2252.80;;;;;;5072726;28;20375;-59
2020/12/17 06:30:09;;;;;;;162.20;67.85;;;128.80;2252.80;;;;;;5072829;28;20032;-59
2020/12/17 06:32:36;;;;;;;141.88;59.75;;;128.90;2252.80;;;;;;5072026;28;20025;-59
2020/12/17 06:35:22;;;;;;;138.70;56.65;;;153.60;2252.80;;;;;;5072217;28;20036;-59
2020/12/17 06:37:51;;;;;;;134.98;52.10;;;153.70;2252.80;;;;;;5072749;28;20023;-59
2020/12/17 06:40:27;;;;;;;161.52;47.88;;;153.90;2252.80;;;;;;5072571;28;20106;-59
2020/12/17 06:42:53;;;;;;;149.80;47.95;;;154.00;2252.80;;;;;;5072330;28;20024;-59
2020/12/17 06:45:35;;;;;;;143.60;47.65;;;153.70;2252.80;;;;;;5072434;28;20433;-59
2020/12/17 06:48:30;;;;;;;142.63;45.85;;;153.70;2252.80;;;;;;5072631;28;20075;-59
2020/12/17 06:50:55;;;;;;;190.35;60.22;;;153.70;2252.80;;;;;;5061468;28;20461;-59
2020/12/17 06:53:37;;;;;;;175.35;46.80;;;128.30;2252.80;;;;;;5072331;28;20151;-59
2020/12/17 06:56:03;;;;;;;143.73;46.58;;;128.10;2252.80;;;;;;5072514;28;20020;-58
2020/12/17 06:58:29;;;;;;;141.63;49.33;;;128.30;2252.80;;;;;;5072448;28;20525;-60
2020/12/17 07:00:55;;;;;;;182.27;57.17;;;128.50;2252.80;;;;;;5071932;28;20044;-58
2020/12/17 07:03:40;;;;;;;133.25;51.83;;;128.50;2252.80;;;;;;5054564;28;20501;-59
2020/12/17 07:06:20;;;;;;;158.55;51.08;;;128.80;2252.80;;;;;;5070372;28;20044;-59
2020/12/17 07:08:51;;;;;;;122.78;43.88;;;128.90;2252.80;;;;;;5072632;28;20467;-59
2020/12/17 07:11:35;;;;;;;126.70;46.58;;;153.70;2252.80;;;;;;5072654;28;20025;-60
2020/12/17 07:14:06;;;;;;;113.15;43.13;;;153.80;2252.80;;;;;;5071592;28;20036;-59
2020/12/17 07:16:33;;;;;;;117.97;43.88;;;153.90;2252.80;;;;;;5072367;28;20016;-60
2020/12/17 07:19:22;;;;;;;109.03;43.25;;;154.00;2252.80;;;;;;5051169;28;20509;-57
2020/12/17 07:22:01;;;;;;;107.55;39.50;;;154.10;2252.80;;;;;;5071843;28;20171;-58
2020/12/17 07:24:28;;;;;;;;;;;154.20;2227.20;;;;;;5072631;28;20016;-57
2020/12/17 07:26:59;;;;;;;130.70;45.40;;;154.20;2227.20;;;;;;5072134;28;19944;-58
2020/12/17 07:29:35;;;;;;;121.68;41.80;;;154.10;2252.80;;;;;;5072114;28;20021;-59
2020/12/17 07:32:23;;;;;;;120.70;44.55;;;154.10;2252.80;;;;;;5071985;28;20029;-58
2020/12/17 07:34:49;;;;;;;186.65;50.15;;;154.10;2252.80;;;;;;5068684;28;20083;-58
2020/12/17 07:37:41;;;;;;;123.13;47.45;;;154.10;2227.20;;;;;;5071916;28;20016;-57
2020/12/17 07:40:29;;;;;;;122.47;51.88;;;154.20;2252.80;;;;;;5072305;28;20074;-57
2020/12/17 07:43:04;;;;;;;127.68;47.65;;;154.30;2227.20;;;;;;5066108;28;20082;-56
2020/12/17 07:45:53;;;;;;;130.85;48.53;;;154.20;2252.80;;;;;;5071967;28;20031;-57
2020/12/17 07:48:33;;;;;;;167.38;73.45;;;154.40;2227.20;;;;;;5071882;28;20489;-57
2020/12/17 07:51:26;;;;;;;153.60;65.63;;;154.30;2227.20;;;;;;5069956;28;20498;-56
2020/12/17 07:53:52;;;;;;;139.38;55.80;;;154.40;2227.20;;;;;;5053187;28;20128;-59
2020/12/17 07:56:19;;;;;;;134.35;50.95;;;154.40;2227.20;;;;;;5067578;28;20082;-60
2020/12/17 07:58:46;;;;;;;135.85;48.40;;;154.50;2227.20;;;;;;5070626;28;20020;-60
2020/12/17 08:01:12;;;;;;;143.38;46.28;;;154.50;2201.60;;;;;;5069755;28;20032;-59
2020/12/17 08:03:52;;;;;;;144.38;49.30;;;154.30;2201.60;;;;;;5069510;28;20390;-60
2020/12/17 08:06:20;;;;;;;172.80;46.55;;;154.10;2252.80;;;;;;5070001;28;20080;-60
2020/12/17 08:08:51;;;;;;;176.93;49.03;;;154.00;2252.80;;;;;;5069405;28;20490;-59
2020/12/17 08:11:20;;;;;;;149.85;48.08;;;153.70;2252.80;;;;;;5069299;28;20028;-59
2020/12/17 08:13:46;;;;;;;156.43;49.95;;;153.80;2252.80;;;;;;5069588;28;20021;-57
2020/12/17 08:16:12;;;;;;;129.23;48.22;;;153.60;2252.80;;;;;;5069002;28;20058;-60
2020/12/17 08:18:37;;;;;;;126.05;46.13;;;153.80;2252.80;;;;;;5069275;28;20137;-60
2020/12/17 08:21:12;;;;;;;139.68;51.65;;;154.20;2252.80;;;;;;5068346;28;20037;-60
2020/12/17 08:23:44;;;;;;;154.43;63.20;;;154.50;2201.60;;;;;;5064147;28;20036;-59
2020/12/17 08:26:12;;;;;;;265.33;173.07;;;179.20;2201.60;;;;;;5073372;28;20112;-60
2020/12/17 08:28:43;;;;;;;173.57;90.47;;;154.30;2227.20;;;;;;5073359;28;20100;-60
2020/12/17 08:31:27;;;;;;;141.82;57.90;;;154.30;2227.20;;;;;;5072324;28;20059;-60
2020/12/17 08:33:56;;;;;;;145.30;51.72;;;154.40;2201.60;;;;;;5043121;28;20043;-60
2020/12/17 08:36:24;;;;;;;164.07;65.07;;;179.20;2201.60;;;;;;5072953;28;20086;-60
2020/12/17 08:39:10;;;;;;;134.38;50.72;;;179.30;2176.00;;;;;;5071018;28;20075;-60
2020/12/17 08:41:49;;;;;;;137.52;49.17;;;179.50;2150.40;;;;;;5072287;28;20074;-60
2020/12/17 08:44:20;;;;;;;156.10;55.63;;;179.60;2150.40;;;;;;5071597;28;20437;-56
2020/12/17 08:46:57;;;;;;;160.52;54.88;;;154.40;2201.60;;;;;;5072410;28;20462;-60
2020/12/17 08:49:25;;;;;;;163.02;55.80;;;154.30;2227.20;;;;;;5068372;28;20578;-58
2020/12/17 08:51:50;;;;;;;150.85;54.92;;;154.50;2201.60;;;;;;5072076;28;20024;-57
2020/12/17 08:54:27;;;;;;;142.40;52.08;;;179.20;2201.60;;;;;;5073105;28;20043;-59
2020/12/17 08:57:11;;;;;;;144.48;53.42;;;179.40;2150.40;;;;;;5073620;28;20025;-56
2020/12/17 08:59:38;;;;;;;157.45;55.45;;;179.40;2176.00;;;;;;5073024;28;20070;-59
2020/12/17 09:02:04;;;;;;;147.82;54.88;;;179.50;2150.40;;;;;;5073014;28;20817;-62
2020/12/17 09:04:30;;;;;;;153.77;56.33;;;179.50;2150.40;;;;;;5073224;28;20234;-61
2020/12/17 09:07:00;;;;;;;144.75;56.33;;;179.50;2150.40;;;;;;5072887;28;20052;-58
2020/12/17 09:09:28;;;;;;;148.32;55.33;;;179.60;2150.40;;;;;;5073304;28;20078;-61
2020/12/17 09:11:56;;;;;;;141.13;59.70;;;179.90;2124.80;;;;;;5071572;28;20032;-56
2020/12/17 09:14:29;;;;;;;169.27;91.88;;;179.70;2099.20;;;;;;5072605;28;20044;-61
2020/12/17 09:17:09;;;;;;;168.40;61.10;;;179.80;2099.20;;;;;;5073408;28;20031;-60
2020/12/17 09:19:35;;;;;;;153.13;60.78;;;179.60;2124.80;;;;;;5074007;28;20021;-60
2020/12/17 09:22:02;;;;;;;198.32;72.10;;;179.70;2124.80;;;;;;5056088;28;20075;-60
2020/12/17 09:24:31;;;;;;;151.32;57.88;;;179.40;2124.80;;;;;;5074339;28;20092;-59
2020/12/17 09:27:13;;;;;;;175.13;70.25;;;179.30;2150.40;;;;;;5074548;28;20032;-59
2020/12/17 09:29:38;;;;;;;153.43;56.45;;;179.30;2150.40;;;;;;5068582;28;20362;-59
2020/12/17 09:32:17;;;;;;;154.88;58.00;;;179.50;2124.80;;;;;;5074079;28;20025;-59
2020/12/17 09:34:43;;;;;;;151.13;52.42;;;179.70;2099.20;;;;;;5074005;28;20393;-59
2020/12/17 09:37:13;;;;;;;135.48;53.92;;;179.80;2073.60;;;;;;5073528;28;20100;-59
2020/12/17 09:39:43;;;;;;;132.82;50.30;;;204.80;2022.40;;;;;;5073699;28;20039;-60
2020/12/17 09:42:09;;;;;;;277.55;192.27;;;205.00;2022.40;;;;;;5074122;28;20100;-56
2020/12/17 09:44:35;;;;;;;154.07;57.72;;;179.90;2048.00;;;;;;5073763;28;20142;-59
2020/12/17 09:47:04;;;;;;;135.32;51.55;;;204.80;2048.00;;;;;;5073582;28;20482;-58
2020/12/17 09:49:39;;;;;;;165.35;74.90;;;204.80;2022.40;;;;;;5073847;28;20025;-59
2020/12/17 09:52:09;;;;;;;147.05;57.22;;;180.10;2073.60;;;;;;5073491;28;20035;-59
2020/12/17 09:54:42;;;;;;;133.20;52.45;;;180.10;2048.00;;;;;;5073666;28;20150;-60
2020/12/17 09:57:15;;;;;;;147.93;57.55;;;205.10;1996.80;;;;;;5073427;28;20027;-57
2020/12/17 09:59:42;;;;;;;149.30;55.92;;;205.00;2022.40;;;;;;5073307;28;20525;-57
2020/12/17 10:02:11;;;;;;;140.60;56.25;;;205.10;1996.80;;;;;;5073341;28;20024;-59
2020/12/17 10:04:38;;;;;;;;;;;205.40;1971.20;;;;;;5056530;28;20103;-56
2020/12/17 10:07:04;;;;;;;143.45;55.88;;;205.50;1945.60;;;;;;5073178;28;19921;-59
2020/12/17 10:09:30;;;;;;;137.65;55.63;;;205.20;1971.20;;;;;;5073043;28;20103;-57
2020/12/17 10:11:56;;;;;;;139.50;54.35;;;205.20;1996.80;;;;;;5055139;28;20120;-59
2020/12/17 10:14:23;;;;;;;140.48;56.70;;;204.90;1996.80;;;;;;5073067;28;20060;-59
2020/12/17 10:16:49;;;;;;;148.15;58.17;;;205.20;1996.80;;;;;;5073032;28;20133;-60
2020/12/17 10:19:16;;;;;;;136.07;54.85;;;205.30;1971.20;;;;;;5072872;28;20029;-59
2020/12/17 10:21:43;;;;;;;128.65;53.42;;;205.50;1971.20;;;;;;5073421;28;20085;-59
2020/12/17 10:24:09;;;;;;;143.38;57.08;;;205.60;1945.60;;;;;;5055215;28;20024;-58
2020/12/17 10:26:34;;;;;;;154.45;58.72;;;205.40;1945.60;;;;;;5073018;28;20111;-60
2020/12/17 10:29:01;;;;;;;143.18;56.22;;;180.10;2048.00;;;;;;5072962;28;20470;-59
2020/12/17 10:31:27;;;;;;;137.60;55.90;;;204.80;2048.00;;;;;;5072170;28;20463;-59
2020/12/17 10:33:54;;;;;;;151.65;58.30;;;204.80;2048.00;;;;;;5072651;28;20040;-60
2020/12/17 10:36:21;;;;;;;152.35;55.47;;;204.90;2048.00;;;;;;5072745;28;20103;-59
2020/12/17 10:38:46;;;;;;;137.48;57.08;;;180.10;2048.00;;;;;;5072539;28;20021;-60
2020/12/17 10:41:12;;;;;;;140.05;56.47;;;205.10;2022.40;;;;;;5072460;28;20012;-58
2020/12/17 10:43:38;;;;;;;139.13;56.75;;;205.20;1971.20;;;;;;5072658;28;20032;-57
2020/12/17 10:46:04;;;;;;;147.13;59.15;;;205.20;1996.80;;;;;;5072301;28;20040;-59
2020/12/17 10:48:29;;;;;;;151.30;60.60;;;205.60;1945.60;;;;;;5071487;28;20151;-60
2020/12/17 10:50:55;;;;;;;135.45;58.85;;;230.40;1920.00;;;;;;5072703;28;20111;-59
2020/12/17 10:53:21;;;;;;;134.77;57.88;;;230.70;1868.80;;;;;;5072549;28;20040;-59
2020/12/17 10:55:46;;;;;;;139.77;58.53;;;231.00;1817.60;;;;;;5072959;28;20518;-59
2020/12/17 10:58:13;;;;;;;139.85;57.38;;;231.10;1792.00;;;;;;5072361;28;20044;-58
2020/12/17 11:00:39;;;;;;;154.63;61.58;;;231.20;1766.40;;;;;;5072300;28;20386;-59
2020/12/17 11:03:09;;;;;;;156.80;62.40;;;230.40;1868.80;;;;;;5072802;28;20355;-58
2020/12/17 11:05:36;;;;;;;132.77;57.53;;;205.20;1971.20;;;;;;5072158;28;20114;-58
2020/12/17 11:08:02;;;;;;;147.13;60.47;;;205.60;1920.00;;;;;;5072535;28;20021;-59
2020/12/17 11:10:28;;;;;;;151.38;63.38;;;205.60;1920.00;;;;;;5072610;28;20024;-59
2020/12/17 11:12:54;;;;;;;149.18;62.28;;;205.60;1945.60;;;;;;5072483;28;20523;-59
2020/12/17 11:15:19;;;;;;;147.68;62.53;;;205.70;1894.40;;;;;;5072078;28;20115;-60
2020/12/17 11:17:45;;;;;;;151.00;64.95;;;230.50;1894.40;;;;;;5072542;28;20024;-59
2020/12/17 11:20:12;;;;;;;154.93;66.78;;;230.50;1868.80;;;;;;5072320;28;20120;-60
2020/12/17 11:22:38;;;;;;;160.57;68.93;;;230.60;1894.40;;;;;;5072152;28;20023;-59
2020/12/17 11:25:04;;;;;;;166.23;75.03;;;230.80;1843.20;;;;;;5072132;28;20028;-57
2020/12/17 11:27:30;;;;;;;178.00;75.90;;;230.70;1817.60;;;;;;5072151;28;20031;-59
2020/12/17 11:29:56;;;;;;;168.18;75.13;;;205.60;1894.40;;;;;;5072031;28;20021;-59
2020/12/17 11:32:21;;;;;;;163.20;69.10;;;230.40;1894.40;;;;;;5072466;28;20024;-59
2020/12/17 11:34:47;;;;;;;165.13;72.32;;;205.10;1945.60;;;;;;5072068;28;20089;-56
2020/12/17 11:37:13;;;;;;;170.88;73.55;;;205.30;1945.60;;;;;;5071880;28;20040;-57
2020/12/17 11:39:40;;;;;;;173.23;76.88;;;205.00;1996.80;;;;;;5072111;28;20028;-57
2020/12/17 11:42:06;;;;;;;170.93;71.43;;;205.20;1971.20;;;;;;5072101;28;20025;-58
2020/12/17 11:44:33;;;;;;;166.40;70.22;;;205.30;1945.60;;;;;;5072208;28;20036;-59
2020/12/17 11:46:59;;;;;;;162.73;68.88;;;205.50;1920.00;;;;;;5071666;28;20032;-59
2020/12/17 11:49:24;;;;;;;175.32;68.40;;;205.60;1894.40;;;;;;5072195;28;20028;-57
2020/12/17 11:51:51;;;;;;;162.07;71.95;;;205.60;1894.40;;;;;;5071650;28;20467;-59
2020/12/17 11:54:17;;;;;;;169.02;73.15;;;205.70;1920.00;;;;;;5071944;28;20044;-58
2020/12/17 11:56:49;;;;;;;177.82;73.22;;;230.50;1868.80;;;;;;5071731;28;20028;-59
2020/12/17 11:59:16;;;;;;;170.85;76.95;;;205.40;1920.00;;;;;;5073143;28;20489;-58